createdAt,value
2023-02-11T00:01:25.560Z,29.88
2023-02-11T00:03:55.242Z,28.88
2023-02-11T00:06:24.648Z,29.00
2023-02-11T00:08:53.135Z,29.35
2023-02-11T00:11:25.450Z,30.02
2023-02-11T00:13:53.923Z,28.85
2023-02-11T00:16:22.327Z,31.58
2023-02-11T00:18:52.890Z,31.45
2023-02-11T00:21:23.439Z,30.02
2023-02-11T00:23:52.425Z,30.98
2023-02-11T00:26:26.983Z,32.60
2023-02-11T00:28:56.973Z,29.90
2023-02-11T00:31:26.666Z,31.38
2023-02-11T00:33:55.396Z,32.92
2023-02-11T00:36:26.789Z,34.80
2023-02-11T00:38:57.008Z,34.33
2023-02-11T00:41:27.295Z,32.45
2023-02-11T00:43:55.767Z,36.20
2023-02-11T00:46:24.805Z,35.22
2023-02-11T00:48:56.507Z,33.47
2023-02-11T00:51:25.001Z,33.65
2023-02-11T00:53:53.763Z,36.92
2023-02-11T00:56:22.248Z,37.85
2023-02-11T00:58:52.091Z,37.55
2023-02-11T01:01:20.947Z,34.25
2023-02-11T01:03:49.373Z,34.13
2023-02-11T01:06:18.422Z,36.40
2023-02-11T01:08:46.933Z,35.63
2023-02-11T01:11:17.878Z,32.47
2023-02-11T01:13:48.358Z,36.25
2023-02-11T01:16:20.427Z,36.13
2023-02-11T01:18:49.307Z,37.17
2023-02-11T01:21:19.336Z,35.35
2023-02-11T01:23:47.900Z,36.35
2023-02-11T01:26:16.647Z,34.58
2023-02-11T01:28:45.095Z,40.65
2023-02-11T01:31:13.567Z,35.80
2023-02-11T01:33:43.500Z,37.88
2023-02-11T01:36:12.731Z,35.65
2023-02-11T01:38:41.798Z,37.67
2023-02-11T01:41:12.762Z,40.58
2023-02-11T01:43:43.953Z,36.97
2023-02-11T01:46:37.446Z,34.22
2023-02-11T01:49:11.036Z,33.95
2023-02-11T01:51:44.863Z,34.10
2023-02-11T01:54:35.456Z,34.85
2023-02-11T01:57:24.915Z,34.80
2023-02-11T02:00:01.818Z,36.65
2023-02-11T02:02:50.011Z,35.80
2023-02-11T02:05:29.477Z,35.53
2023-02-11T02:08:05.725Z,39.85
2023-02-11T02:10:36.482Z,35.88
2023-02-11T02:13:04.995Z,36.05
2023-02-11T02:15:34.843Z,38.15
2023-02-11T02:18:16.726Z,34.17
2023-02-11T02:21:31.407Z,31.45
2023-02-11T02:24:26.662Z,34.10
2023-02-11T02:27:34.852Z,35.17
2023-02-11T02:30:49.202Z,30.73
2023-02-11T02:33:28.955Z,31.15
2023-02-11T02:36:08.631Z,34.83
2023-02-11T02:38:45.659Z,35.63
2023-02-11T02:41:17.882Z,32.67
2023-02-11T02:43:49.798Z,34.28
2023-02-11T02:46:20.808Z,30.55
2023-02-11T02:48:52.567Z,33.10
2023-02-11T02:52:02.801Z,33.53
2023-02-11T02:54:56.449Z,34.97
2023-02-11T02:57:31.775Z,27.45
2023-02-11T03:00:13.290Z,31.05
2023-02-11T03:02:53.414Z,32.70
2023-02-11T03:05:32.207Z,36.08
2023-02-11T03:08:09.195Z,29.98
2023-02-11T03:10:41.379Z,31.60
2023-02-11T03:13:10.689Z,33.22
2023-02-11T03:15:44.388Z,30.02
2023-02-11T03:18:16.986Z,27.70
2023-02-11T03:20:51.562Z,33.72
2023-02-11T03:23:24.817Z,30.42
2023-02-11T03:25:59.076Z,35.40
2023-02-11T03:28:32.495Z,29.70
2023-02-11T03:31:11.080Z,30.08
2023-02-11T03:33:46.364Z,30.05
2023-02-11T03:36:20.298Z,30.67
2023-02-11T03:38:52.925Z,32.47
2023-02-11T03:41:24.212Z,27.77
2023-02-11T03:43:55.329Z,31.73
2023-02-11T03:46:29.581Z,32.20
2023-02-11T03:49:03.920Z,27.20
2023-02-11T03:51:34.537Z,28.90
2023-02-11T03:54:06.789Z,33.55
2023-02-11T03:56:42.841Z,30.40
2023-02-11T03:59:11.360Z,27.48
2023-02-11T04:01:39.826Z,34.35
2023-02-11T04:04:08.180Z,31.45
2023-02-11T04:06:38.872Z,31.95
2023-02-11T04:09:07.302Z,34.75
2023-02-11T04:11:35.778Z,32.03
2023-02-11T04:14:04.341Z,34.22
2023-02-11T04:16:32.802Z,35.22
2023-02-11T04:19:01.626Z,36.78
2023-02-11T04:21:30.065Z,34.78
2023-02-11T04:23:59.795Z,34.30
2023-02-11T04:26:28.253Z,34.22
2023-02-11T04:28:56.664Z,36.25
2023-02-11T04:31:25.123Z,33.50
2023-02-11T04:33:53.641Z,35.30
2023-02-11T04:36:21.986Z,37.10
2023-02-11T04:38:50.331Z,30.42
2023-02-11T04:41:20.034Z,34.72
2023-02-11T04:43:48.395Z,32.67
2023-02-11T04:46:16.822Z,33.10
2023-02-11T04:48:45.270Z,34.35
2023-02-11T04:51:13.791Z,33.08
2023-02-11T04:53:42.568Z,36.70
2023-02-11T04:56:10.920Z,34.38
2023-02-11T04:58:40.608Z,39.08
2023-02-11T05:01:09.764Z,37.53
2023-02-11T05:03:38.254Z,40.45
2023-02-11T05:06:07.465Z,35.00
2023-02-11T05:08:36.615Z,34.92
2023-02-11T05:11:05.584Z,33.35
2023-02-11T05:13:34.139Z,39.33
2023-02-11T05:16:03.921Z,37.72
2023-02-11T05:18:32.265Z,35.30
2023-02-11T05:21:00.727Z,36.20
2023-02-11T05:23:29.089Z,33.97
2023-02-11T05:25:57.450Z,36.45
2023-02-11T05:28:25.867Z,36.13
2023-02-11T05:30:54.280Z,33.83
2023-02-11T05:33:24.635Z,33.95
2023-02-11T05:35:53.280Z,33.80
2023-02-11T05:38:21.765Z,37.10
2023-02-11T05:40:50.155Z,35.80
2023-02-11T05:43:18.566Z,34.78
2023-02-11T05:45:46.933Z,33.13
2023-02-11T05:48:15.526Z,32.97
2023-02-11T05:50:45.511Z,31.00
2023-02-11T05:53:14.008Z,32.85
2023-02-11T05:55:42.506Z,29.95
2023-02-11T05:58:11.169Z,34.28
2023-02-11T06:00:39.594Z,28.65
2023-02-11T06:03:08.042Z,30.30
2023-02-11T06:05:36.444Z,31.45
2023-02-11T06:08:06.304Z,30.55
2023-02-11T06:10:34.677Z,31.73
2023-02-11T06:13:03.345Z,28.25
2023-02-11T06:15:31.773Z,27.67
2023-02-11T06:18:00.115Z,30.38
2023-02-11T06:20:28.567Z,28.80
2023-02-11T06:22:56.871Z,30.23
2023-02-11T06:25:26.722Z,25.13
2023-02-11T06:27:55.329Z,27.50
2023-02-11T06:30:23.862Z,26.95
2023-02-11T06:32:52.324Z,29.08
2023-02-11T06:35:20.723Z,28.17
2023-02-11T06:37:49.649Z,29.08
2023-02-11T06:40:18.579Z,28.00
2023-02-11T06:42:48.320Z,32.58
2023-02-11T06:45:16.754Z,28.20
2023-02-11T06:47:45.104Z,30.00
2023-02-11T06:50:15.518Z,28.83
2023-02-11T06:52:43.887Z,31.70
2023-02-11T06:55:12.948Z,28.73
2023-02-11T06:57:41.772Z,32.17
2023-02-11T07:00:13.482Z,27.17
2023-02-11T07:02:42.003Z,33.15
2023-02-11T07:05:12.090Z,31.02
2023-02-11T07:07:40.504Z,33.63
2023-02-11T07:10:09.400Z,27.35
2023-02-11T07:12:37.806Z,33.13
2023-02-11T07:15:06.534Z,31.23
2023-02-11T07:17:37.155Z,33.70
2023-02-11T07:20:06.336Z,29.80
2023-02-11T07:22:35.333Z,28.45
2023-02-11T07:25:04.383Z,28.40
2023-02-11T07:27:32.832Z,32.30
2023-02-11T07:30:01.186Z,32.10
2023-02-11T07:32:29.548Z,27.88
2023-02-11T07:34:59.363Z,26.90
2023-02-11T07:37:28.143Z,32.53
2023-02-11T07:39:56.529Z,29.33
2023-02-11T07:42:24.856Z,31.88
2023-02-11T07:44:53.261Z,31.98
2023-02-11T07:47:21.767Z,29.27
2023-02-11T07:49:50.115Z,28.30
2023-02-11T07:52:20.132Z,28.88
2023-02-11T07:54:49.602Z,31.55
2023-02-11T07:57:18.013Z,25.73
2023-02-11T07:59:46.583Z,29.38
2023-02-11T08:02:14.931Z,28.73
2023-02-11T08:04:43.469Z,31.25
2023-02-11T08:07:11.895Z,29.58
2023-02-11T08:09:41.566Z,28.95
2023-02-11T08:12:09.960Z,32.30
2023-02-11T08:14:38.842Z,25.67
2023-02-11T08:17:07.224Z,26.85
2023-02-11T08:19:35.590Z,29.38
2023-02-11T08:22:03.950Z,27.85
2023-02-11T08:24:32.376Z,26.35
2023-02-11T08:27:02.118Z,28.55
2023-02-11T08:29:30.820Z,27.30
2023-02-11T08:31:59.277Z,29.20
2023-02-11T08:34:27.621Z,30.05
2023-02-11T08:36:55.999Z,29.95
2023-02-11T08:39:24.399Z,27.25
2023-02-11T08:41:54.329Z,31.58
2023-02-11T08:44:25.082Z,27.25
2023-02-11T08:46:53.964Z,32.60
2023-02-11T08:49:22.982Z,27.25
2023-02-11T08:51:51.871Z,33.83
2023-02-11T08:54:20.358Z,31.55
2023-02-11T08:56:52.129Z,35.30
2023-02-11T08:59:20.926Z,31.55
2023-02-11T09:01:51.273Z,29.55
2023-02-11T09:04:20.352Z,37.22
2023-02-11T09:06:48.974Z,28.70
2023-02-11T09:09:18.198Z,28.58
2023-02-11T09:11:47.657Z,29.40
2023-02-11T09:14:19.275Z,30.00
2023-02-11T09:16:47.870Z,36.38
2023-02-11T09:19:18.302Z,34.80
2023-02-11T09:21:47.214Z,29.00
2023-02-11T09:24:15.998Z,27.42
2023-02-11T09:26:44.503Z,26.67
2023-02-11T09:29:13.138Z,24.83
2023-02-11T09:31:41.720Z,27.95
2023-02-11T09:34:12.898Z,29.63
2023-02-11T09:36:42.888Z,27.83
2023-02-11T09:39:14.943Z,31.00
2023-02-11T09:42:08.407Z,34.00
2023-02-11T09:44:38.533Z,29.48
2023-02-11T09:47:20.627Z,28.10
2023-02-11T09:49:53.632Z,27.08
2023-02-11T09:52:31.673Z,30.70
2023-02-11T09:55:01.750Z,26.38
2023-02-11T09:57:35.890Z,28.60
2023-02-11T10:00:18.653Z,31.35
2023-02-11T10:03:19.251Z,26.30
2023-02-11T10:06:06.454Z,27.42
2023-02-11T10:08:46.710Z,28.60
2023-02-11T10:11:31.659Z,24.77
2023-02-11T10:14:12.699Z,26.38
2023-02-11T10:16:56.471Z,31.00
2023-02-11T10:19:43.718Z,29.23
2023-02-11T10:22:20.289Z,25.08
2023-02-11T10:27:48.847Z,28.70
2023-02-11T10:30:24.584Z,26.17
2023-02-11T10:35:26.334Z,31.10
2023-02-11T10:37:55.791Z,32.88
2023-02-11T10:40:27.869Z,27.85
2023-02-11T10:43:00.135Z,33.55
2023-02-11T10:45:34.023Z,30.73
2023-02-11T10:48:07.130Z,32.20
2023-02-11T10:50:37.007Z,27.40
2023-02-11T10:53:20.391Z,33.95
2023-02-11T10:55:53.706Z,34.20
2023-02-11T10:58:27.856Z,28.52
2023-02-11T11:00:58.139Z,32.17
2023-02-11T11:03:31.544Z,27.65
2023-02-11T11:06:02.764Z,30.17
2023-02-11T11:08:43.598Z,31.08
2023-02-11T11:11:15.963Z,30.40
2023-02-11T11:13:57.990Z,33.17
2023-02-11T11:16:27.940Z,28.95
2023-02-11T11:19:16.422Z,33.28
2023-02-11T11:21:46.764Z,27.73
2023-02-11T11:24:20.353Z,33.67
2023-02-11T11:26:53.263Z,33.08
2023-02-11T11:29:28.674Z,35.58
2023-02-11T11:32:01.135Z,31.70
2023-02-11T11:34:32.744Z,34.45
2023-02-11T11:37:03.240Z,34.63
2023-02-11T11:39:34.825Z,32.15
2023-02-11T11:42:07.025Z,35.88
2023-02-11T11:44:36.594Z,39.97
2023-02-11T11:47:22.673Z,43.42
2023-02-11T11:52:36.700Z,35.40
2023-02-11T11:55:13.964Z,36.00
2023-02-11T11:57:44.029Z,34.83
2023-02-11T12:00:19.308Z,36.03
2023-02-11T12:03:11.553Z,37.20
2023-02-11T12:05:47.972Z,38.30
2023-02-11T12:08:28.043Z,35.30
2023-02-11T12:11:10.466Z,40.47
2023-02-11T12:13:49.924Z,38.28
2023-02-11T12:16:29.576Z,38.38
2023-02-11T12:19:31.810Z,38.65
2023-02-11T12:22:10.581Z,33.33
2023-02-11T12:25:06.345Z,37.38
2023-02-11T12:27:46.944Z,36.50
2023-02-11T12:30:42.566Z,37.63
2023-02-11T12:33:22.111Z,39.30
2023-02-11T12:35:57.735Z,37.05
2023-02-11T12:41:16.164Z,36.28
2023-02-11T12:43:45.058Z,35.92
2023-02-11T12:46:34.302Z,35.95
2023-02-11T12:49:27.287Z,40.38
2023-02-11T12:52:16.067Z,36.63
2023-02-11T12:54:52.641Z,38.97
2023-02-11T12:57:24.234Z,38.40
2023-02-11T12:59:59.919Z,42.17
2023-02-11T13:02:41.328Z,38.67
2023-02-11T13:05:23.556Z,35.90
2023-02-11T13:07:56.866Z,34.30
2023-02-11T13:10:33.481Z,39.20
2023-02-11T13:13:18.743Z,36.67
2023-02-11T13:15:51.753Z,31.58
2023-02-11T13:18:48.133Z,40.35
2023-02-11T13:21:32.055Z,34.83
2023-02-11T13:24:10.430Z,32.13
2023-02-11T13:26:47.711Z,37.17
2023-02-11T13:29:24.446Z,30.55
2023-02-11T13:31:57.369Z,30.63
2023-02-11T13:35:01.417Z,33.58
2023-02-11T13:37:37.275Z,33.75
2023-02-11T13:40:11.177Z,34.97
2023-02-11T13:42:51.349Z,33.47
2023-02-11T13:45:30.217Z,31.75
2023-02-11T13:47:59.483Z,27.25
2023-02-11T13:50:32.548Z,29.80
2023-02-11T13:53:03.551Z,32.85
2023-02-11T13:55:33.385Z,31.38
2023-02-11T13:58:20.033Z,25.52
2023-02-11T14:00:50.775Z,26.85
2023-02-11T14:03:52.382Z,26.42
2023-02-11T14:06:42.922Z,28.70
2023-02-11T14:09:39.922Z,26.80
2023-02-11T14:12:36.010Z,30.45
2023-02-11T14:15:26.455Z,25.40
2023-02-11T14:17:55.007Z,23.80
2023-02-11T14:20:47.955Z,25.27
2023-02-11T14:23:28.281Z,25.20
2023-02-11T14:26:19.564Z,25.63
2023-02-11T14:28:52.058Z,24.92
2023-02-11T14:31:25.431Z,23.17
2023-02-11T14:34:09.012Z,27.88
2023-02-11T14:37:09.204Z,28.88
2023-02-11T14:39:58.227Z,22.38
2023-02-11T14:42:29.636Z,22.45
2023-02-11T14:45:04.427Z,25.20
2023-02-11T14:47:40.782Z,24.45
2023-02-11T14:50:18.540Z,26.38
2023-02-11T14:52:48.128Z,27.52
2023-02-11T14:55:29.274Z,30.05
2023-02-11T14:58:15.959Z,26.38
2023-02-11T15:00:53.856Z,26.70
2023-02-11T15:03:35.082Z,27.60
2023-02-11T15:06:06.811Z,28.42
2023-02-11T15:08:38.161Z,28.25
2023-02-11T15:11:13.682Z,26.35
2023-02-11T15:13:47.187Z,31.05
2023-02-11T15:16:19.340Z,31.30
2023-02-11T15:18:52.389Z,30.20
2023-02-11T15:21:23.179Z,29.98
2023-02-11T15:24:00.510Z,27.40
2023-02-11T15:26:31.244Z,30.48
2023-02-11T15:28:59.781Z,31.45
2023-02-11T15:31:29.328Z,37.58
2023-02-11T15:34:08.703Z,29.02
2023-02-11T15:36:38.659Z,29.33
2023-02-11T15:39:30.055Z,34.13
2023-02-11T15:42:17.464Z,30.40
2023-02-11T15:44:47.125Z,33.25
2023-02-11T15:47:21.708Z,34.95
2023-02-11T15:49:50.288Z,29.65
2023-02-11T15:52:26.469Z,33.65
2023-02-11T15:54:57.195Z,32.45
2023-02-11T15:57:27.222Z,32.75
2023-02-11T15:59:57.220Z,32.60
2023-02-11T16:02:31.944Z,34.55
2023-02-11T16:05:02.428Z,35.83
2023-02-11T16:07:45.885Z,31.75
2023-02-11T16:10:20.263Z,33.75
2023-02-11T16:12:54.691Z,30.17
2023-02-11T16:15:44.205Z,31.05
2023-02-11T16:18:36.781Z,32.22
2023-02-11T16:21:08.719Z,32.85
2023-02-11T16:23:42.253Z,34.20
2023-02-11T16:26:22.070Z,35.03
2023-02-11T16:28:52.337Z,34.53
2023-02-11T16:31:21.054Z,34.08
2023-02-11T16:33:49.498Z,36.20
2023-02-11T16:36:18.149Z,38.10
2023-02-11T16:38:46.655Z,34.42
2023-02-11T16:41:15.180Z,32.10
2023-02-11T16:43:43.551Z,38.33
2023-02-11T16:46:16.053Z,33.78
2023-02-11T16:48:44.796Z,32.33
2023-02-11T16:51:13.497Z,34.42
2023-02-11T16:53:41.986Z,39.50
2023-02-11T16:56:15.798Z,36.63
2023-02-11T16:58:44.815Z,38.38
2023-02-11T17:01:14.719Z,39.67
2023-02-11T17:03:43.673Z,44.00
2023-02-11T17:06:13.615Z,38.13
2023-02-11T17:08:42.092Z,36.75
2023-02-11T17:11:10.779Z,36.78
2023-02-11T17:13:39.450Z,38.55
2023-02-11T17:16:16.910Z,36.38
2023-02-11T17:18:45.615Z,52.80
2023-02-11T17:21:14.254Z,43.33
2023-02-11T17:23:42.901Z,40.40
2023-02-11T17:26:11.351Z,39.92
2023-02-11T17:28:39.783Z,41.40
2023-02-11T17:31:09.557Z,37.40
2023-02-11T17:33:39.356Z,36.75
2023-02-11T17:36:09.500Z,46.58
2023-02-11T17:38:38.933Z,42.47
2023-02-11T17:41:07.605Z,38.85
2023-02-11T17:43:36.089Z,37.05
2023-02-11T17:46:08.210Z,38.33
2023-02-11T17:48:39.766Z,39.15
2023-02-11T17:51:22.598Z,42.90
2023-02-11T17:53:51.307Z,39.72
2023-02-11T17:56:19.961Z,40.15
2023-02-11T17:58:48.513Z,37.63
2023-02-11T18:01:17.544Z,39.33
2023-02-11T18:03:47.462Z,37.85
2023-02-11T18:06:16.058Z,40.17
2023-02-11T18:08:45.061Z,42.15
2023-02-11T18:11:14.987Z,39.72
2023-02-11T18:13:44.982Z,41.90
2023-02-11T18:16:15.601Z,48.42
2023-02-11T18:18:44.510Z,46.95
2023-02-11T18:21:15.739Z,48.40
2023-02-11T18:23:45.009Z,46.25
2023-02-11T18:26:15.231Z,48.72
2023-02-11T18:28:45.840Z,42.90
2023-02-11T18:31:15.554Z,51.75
2023-02-11T18:33:44.493Z,48.33
2023-02-11T18:36:16.018Z,48.97
2023-02-11T18:38:45.077Z,49.58
2023-02-11T18:41:16.521Z,45.75
2023-02-11T18:43:44.981Z,49.80
2023-02-11T18:46:16.087Z,46.13
2023-02-11T18:48:45.825Z,44.83
2023-02-11T18:51:18.242Z,48.58
2023-02-11T18:53:46.765Z,48.67
2023-02-11T18:56:17.113Z,48.20
2023-02-11T18:58:45.828Z,53.35
2023-02-11T19:01:16.186Z,49.42
2023-02-11T19:03:46.377Z,50.03
2023-02-11T19:06:18.422Z,51.42
2023-02-11T19:08:47.052Z,46.55
2023-02-11T19:11:17.200Z,52.25
2023-02-11T19:13:47.573Z,46.83
2023-02-11T19:16:19.596Z,49.10
2023-02-11T19:18:48.669Z,49.10
2023-02-11T19:21:20.457Z,48.90
2023-02-11T19:23:48.825Z,47.85
2023-02-11T19:26:17.237Z,49.13
2023-02-11T19:28:45.576Z,48.30
2023-02-11T19:31:14.593Z,47.75
2023-02-11T19:33:43.180Z,49.42
2023-02-11T19:36:16.186Z,46.50
2023-02-11T19:38:47.104Z,53.10
2023-02-11T19:41:18.932Z,45.88
2023-02-11T19:43:52.577Z,48.15
2023-02-11T19:46:21.701Z,43.80
2023-02-11T19:48:50.853Z,51.97
2023-02-11T19:51:20.008Z,44.70
2023-02-11T19:53:51.064Z,49.92
2023-02-11T19:56:20.885Z,51.97
2023-02-11T19:58:49.503Z,49.33
2023-02-11T20:01:20.444Z,47.90
2023-02-11T20:03:50.316Z,45.10
2023-02-11T20:06:23.652Z,48.67
2023-02-11T20:08:58.412Z,49.67
2023-02-11T20:11:28.338Z,52.58
2023-02-11T20:13:57.181Z,50.33
2023-02-11T20:16:44.548Z,47.38
2023-02-11T20:19:17.711Z,49.60
2023-02-11T20:21:48.276Z,48.35
2023-02-11T20:24:19.442Z,50.72
2023-02-11T20:26:48.417Z,49.97
2023-02-11T20:29:17.952Z,45.95
2023-02-11T20:31:46.699Z,44.05
2023-02-11T20:34:17.500Z,50.30
2023-02-11T20:36:51.524Z,51.00
2023-02-11T20:39:22.782Z,48.33
2023-02-11T20:41:51.534Z,46.38
2023-02-11T20:44:21.663Z,55.28
2023-02-11T20:46:50.760Z,47.80
2023-02-11T20:49:21.905Z,47.25
2023-02-11T20:51:51.199Z,46.45
2023-02-11T20:54:22.388Z,46.40
2023-02-11T20:56:51.745Z,50.00
2023-02-11T20:59:21.862Z,46.70
2023-02-11T21:01:55.099Z,51.97
2023-02-11T21:04:25.827Z,49.78
2023-02-11T21:06:58.127Z,45.53
2023-02-11T21:09:30.632Z,52.70
2023-02-11T21:11:59.452Z,47.78
2023-02-11T21:14:30.094Z,45.15
2023-02-11T21:16:58.753Z,47.97
2023-02-11T21:19:27.852Z,45.55
2023-02-11T21:21:57.239Z,50.85
2023-02-11T21:24:25.722Z,48.65
2023-02-11T21:26:55.672Z,42.85
2023-02-11T21:29:24.109Z,42.33
2023-02-11T21:31:52.687Z,49.03
2023-02-11T21:34:21.192Z,48.28
2023-02-11T21:36:51.038Z,49.65
2023-02-11T21:39:20.137Z,47.25
2023-02-11T21:41:48.593Z,46.63
2023-02-11T21:44:18.445Z,46.70
2023-02-11T21:46:46.878Z,41.53
2023-02-11T21:49:15.283Z,44.25
2023-02-11T21:51:43.741Z,45.92
2023-02-11T21:54:12.859Z,46.70
2023-02-11T21:56:41.747Z,43.88
2023-02-11T21:59:14.499Z,48.03
2023-02-11T22:01:46.182Z,49.22
2023-02-11T22:04:17.168Z,43.50
2023-02-11T22:06:45.811Z,50.97
2023-02-11T22:09:14.144Z,46.00
2023-02-11T22:11:42.512Z,45.35
2023-02-11T22:14:10.938Z,48.53
2023-02-11T22:16:39.885Z,46.85
2023-02-11T22:19:10.447Z,45.10
2023-02-11T22:21:43.580Z,51.58
2023-02-11T22:24:19.206Z,44.58
2023-02-11T22:26:47.597Z,51.47
2023-02-11T22:29:18.993Z,45.13
2023-02-11T22:31:47.412Z,43.65
2023-02-11T22:34:17.247Z,47.00
2023-02-11T22:36:46.865Z,44.70
2023-02-11T22:39:20.316Z,47.28
2023-02-11T22:41:49.146Z,49.08
2023-02-11T22:44:18.286Z,49.92
2023-02-11T22:46:47.338Z,46.45
2023-02-11T22:49:18.537Z,50.42
2023-02-11T22:51:46.982Z,45.47
2023-02-11T22:54:17.405Z,43.53
2023-02-11T22:56:52.166Z,47.45
2023-02-11T22:59:21.359Z,46.03
2023-02-11T23:01:54.335Z,46.65
2023-02-11T23:04:24.196Z,49.33
2023-02-11T23:06:52.525Z,42.10
2023-02-11T23:09:23.090Z,48.58
2023-02-11T23:11:54.231Z,47.35
2023-02-11T23:14:22.663Z,45.13
2023-02-11T23:16:51.749Z,45.58
2023-02-11T23:19:20.265Z,40.70
2023-02-11T23:21:52.431Z,45.70
2023-02-11T23:24:20.841Z,45.05
2023-02-11T23:26:49.176Z,41.38
2023-02-11T23:29:17.609Z,44.50
2023-02-11T23:31:46.564Z,42.90
2023-02-11T23:34:17.063Z,40.95
2023-02-11T23:36:45.593Z,44.58
2023-02-11T23:39:17.249Z,43.70
2023-02-11T23:41:45.873Z,44.58
2023-02-11T23:44:15.210Z,43.85
2023-02-11T23:46:43.689Z,43.28
2023-02-11T23:49:12.042Z,47.63
2023-02-11T23:51:40.420Z,42.20
2023-02-11T23:54:14.543Z,43.85
2023-02-11T23:56:44.454Z,45.13
2023-02-11T23:59:13.079Z,41.55
